Algoma Mariner — CFN5517 — position and weather

sailwx.info

Track history (hours):
 
Tides and Currents Weather Stations Pressure Air Temp Water Temp Dewpoint Dewpoint Depression Visibility Wind Speed Wind Dir Waves Ship Positions

Algoma Mariner

Last reported at 2017-Nov-19 00:00 UTC. Time now 2017-Nov-20 07:58 UTC.
Position N 47°42' W 060°18'.

Length 225 m; draft 8.1 m.

Type: Cargo ship. MMSI: 316014050.

Wind from 300 at 28 knots

Barometer 1001.0 mb
Air temperature 5.0 ° C
Visibility: greater than 5.4 NM

Date/timePositionNaut miles runAvg speedWind from/ knotsBaromVisibWave heightAir tempDewpointWater temp
2017-Nov-19 00:00N 47°42' W 060°18'199 8.3 300 / 281001.0 5.4 5.0
2017-Nov-18 00:00N 44°36' W 062°00'   290 / 35996.0 5.4 8.0
2017-Nov-14 11:00N 45°54' W 059°36'13313.3 010 / 201020.0 5.4 4.0
2017-Nov-14 01:00N 47°54' W 061°00'53510.4 260 / 101023.010.8 3.0
2017-Nov-11 21:38N 45°30' W 073°31'0 1.2
2017-Nov-11 21:30N 45°29' W 073°31'1 2.9
2017-Nov-11 21:00N 45°28' W 073°30'6 2.6
2017-Nov-11 18:33N 45°24' W 073°37'0 4.9
2017-Nov-11 18:29N 45°24' W 073°38'3 5.7
2017-Nov-11 18:00N 45°25' W 073°41'4 8.1
2017-Nov-11 17:30N 45°24' W 073°47'612.5
2017-Nov-11 17:00N 45°20' W 073°54'1 2.9
2017-Nov-11 16:31N 45°19' W 073°55'1 1.4
2017-Nov-11 16:01N 45°18' W 073°56'0 0.5
2017-Nov-11 15:31N 45°18' W 073°56'1 2.6
2017-Nov-11 15:00N 45°17' W 073°57'3 5.8
2017-Nov-11 14:30N 45°15' W 073°59'5 9.1
2017-Nov-11 14:00N 45°13' W 074°05'5 9.4
2017-Nov-11 13:30N 45°14' W 074°12'230 8.7
2017-Nov-10 11:00N 43°24' W 078°54'   310 / 301014.010.8 -3.0
Track history (hours):
 
Tides and Currents Weather Stations Pressure Air Temp Water Temp Dewpoint Dewpoint Depression Visibility Wind Speed Wind Dir Waves Ship Positions

Algoma Mariner

Last reported at 2017-Nov-19 00:00 UTC. Time now 2017-Nov-20 07:58 UTC.
Position N 47°42' W 060°18'.

Length 225 m; draft 8.1 m.

Type: Cargo ship. MMSI: 316014050.

Wind from 300 at 28 knots

Barometer 1001.0 mb
Air temperature 5.0 ° C
Visibility: greater than 5.4 NM

Date/timePositionNaut miles runAvg speedWind from/ knotsBaromVisibWave heightAir tempDewpointWater temp
2017-Nov-19 00:00N 47°42' W 060°18'199 8.3 300 / 281001.0 5.4 5.0
2017-Nov-18 00:00N 44°36' W 062°00'   290 / 35996.0 5.4 8.0
2017-Nov-14 11:00N 45°54' W 059°36'13313.3 010 / 201020.0 5.4 4.0
2017-Nov-14 01:00N 47°54' W 061°00'53510.4 260 / 101023.010.8 3.0
2017-Nov-11 21:38N 45°30' W 073°31'0 1.2
2017-Nov-11 21:30N 45°29' W 073°31'1 2.9
2017-Nov-11 21:00N 45°28' W 073°30'6 2.6
2017-Nov-11 18:33N 45°24' W 073°37'0 4.9
2017-Nov-11 18:29N 45°24' W 073°38'3 5.7
2017-Nov-11 18:00N 45°25' W 073°41'4 8.1
2017-Nov-11 17:30N 45°24' W 073°47'612.5
2017-Nov-11 17:00N 45°20' W 073°54'1 2.9
2017-Nov-11 16:31N 45°19' W 073°55'1 1.4
2017-Nov-11 16:01N 45°18' W 073°56'0 0.5
2017-Nov-11 15:31N 45°18' W 073°56'1 2.6
2017-Nov-11 15:00N 45°17' W 073°57'3 5.8
2017-Nov-11 14:30N 45°15' W 073°59'5 9.1
2017-Nov-11 14:00N 45°13' W 074°05'5 9.4
2017-Nov-11 13:30N 45°14' W 074°12'230 8.7
2017-Nov-10 11:00N 43°24' W 078°54'   310 / 301014.010.8 -3.0

Dump ship's entire track history